This is the latest recevied weather packets stored in our database for station/object K4HOG. If no packets are shown the sender has not sent any weather packets the latest 10 day(s).
| Time | Temp. | Humidity | Pressure | Rain* | Wind** | Luminosity | Snow |
|---|---|---|---|---|---|---|---|
| 1777300942 | 25.56° C | 73% | 1016.7 hPa | 0 mm | - | 170 W/m² | - |
| 1777300640 | 25.56° C | 73% | 1016.7 hPa | 0 mm | - | 287 W/m² | - |
| 1777300337 | 25° C | 76% | 1016.6 hPa | 0 mm | - | 169 W/m² | - |
| 1777300034 | 25° C | 77% | 1016.6 hPa | 0 mm | - | 171 W/m² | - |
| 1777299731 | 25° C | 76% | 1016.5 hPa | 0 mm | - | 213 W/m² | - |
| 1777299428 | 25° C | 77% | 1016.5 hPa | 0 mm | - | 207 W/m² | - |
| 1777299126 | 24.44° C | 78% | 1016.6 hPa | 0 mm | - | 203 W/m² | - |
| 1777298823 | 24.44° C | 78% | 1016.5 hPa | 0 mm | - | 175 W/m² | - |
| 1777298519 | 24.44° C | 80% | 1016.5 hPa | 0 mm | - | 195 W/m² | - |
| 1777298215 | 23.89° C | 81% | 1016.5 hPa | 0 mm | - | 234 W/m² | - |
| 1777297911 | 23.89° C | 81% | 1016.4 hPa | 0 mm | - | 205 W/m² | - |
| 1777297608 | 23.89° C | 81% | 1016.3 hPa | 0 mm | - | 178 W/m² | - |
| 1777297305 | 24.44° C | 80% | 1016 hPa | 0 mm | - | 172 W/m² | - |
| 1777297003 | 23.89° C | 82% | 1016.1 hPa | 0 mm | - | 205 W/m² | - |
| 1777296699 | 23.89° C | 83% | 1016.1 hPa | 0 mm | - | 186 W/m² | - |
| 1777296390 | 23.33° C | 85% | 1016.1 hPa | 0 mm | - | 169 W/m² | - |
| 1777296086 | 23.33° C | 85% | 1015.9 hPa | 0 mm | - | 140 W/m² | - |
| 1777295783 | 22.78° C | 87% | 1015.8 hPa | 0 mm | - | 174 W/m² | - |
| 1777295480 | 22.78° C | 88% | 1015.9 hPa | 0 mm | - | 189 W/m² | - |
| 1777295178 | 22.78° C | 91% | 1016.2 hPa | 0 mm | - | 255 W/m² | - |
| 1777294875 | 22.22° C | 92% | 1015.9 hPa | 0 mm | - | 137 W/m² | - |
| 1777294575 | 22.22° C | 94% | 1015.9 hPa | 0 mm | - | 90 W/m² | - |
| 1777294272 | 21.67° C | 95% | 1015.8 hPa | 0 mm | - | 100 W/m² | - |
| 1777293968 | 21.67° C | 97% | 1015.8 hPa | 0 mm | - | 112 W/m² | - |
| 1777293665 | 21.67° C | 97% | 1015.8 hPa | 0 mm | - | 101 W/m² | - |
* Rain latest hour (hover to see other rain measurements)
** Current wind speed in m/s (hover to see current wind gust speed)